Brussels, Wisconsin
Current Conditions -  °F | °C
As of 8:55 PM on Sunday 21 Dec 2014 (Local Time) from KSUE Reporting Station
Overcast Overcast  
Wind Chill: 26°   Ceiling: 1900
Heat Index: 36°   Visibility: 8mi
Dew Point: 32°   Wind: 16mph
Humidity: 87%   Direction: 180°S
Pressure: 30.01"   Gusts: 21mph
Location:  44.74°N, 87.62°W
Report Text: KSUE 220255Z AUTO 18014G18KT 8SM SCT011 BKN019 OVC038 02/00 A3001 RMK AO1 57007
Loading
Personal Weather Stations






























Interactive Weather Map New forecast layout! Learn more

10-Day Weather Forecast

Advertisements
Track Severe Weather on mobile